Time;durP1;ratioP1;P1;durP2;ratioP2;P2;SDS_P1;SDS_P2;PMS_P1;PMS_P2;Temp;Humidity;BMP_temperature;BMP_pressure;BME280_temperature;BME280_humidity;BME280_pressure;Samples;Min_cycle;Max_cycle;Signal;HPM_P1;HPM_P2
2022/03/20 00:00:53;;;;;;;;;;;9.30;40.80;;;;;;4994780;28;19917;-55
2022/03/20 00:03:20;;;;;;;;;;;9.50;40.80;;;;;;4994542;28;20282;-57
2022/03/20 00:05:46;;;;;;;;;;;9.50;40.80;;;;;;4994715;28;19910;-55
2022/03/20 00:08:12;;;;;;;;;;;9.50;40.60;;;;;;4994788;28;19952;-55
2022/03/20 00:10:42;;;;;;;;;;;9.50;40.60;;;;;;4994735;28;19956;-56
2022/03/20 00:13:08;;;;;;;;;;;9.30;41.10;;;;;;4994641;28;19949;-57
2022/03/20 00:15:34;;;;;;;;;;;9.20;41.40;;;;;;4994523;28;19922;-55
2022/03/20 00:17:59;;;;;;;;;;;9.20;41.50;;;;;;4994528;28;19916;-56
2022/03/20 00:20:25;;;;;;;;;;;9.20;41.40;;;;;;4994592;28;19916;-57
2022/03/20 00:22:50;;;;;;;;;;;9.20;41.30;;;;;;4994530;28;19910;-60
2022/03/20 00:25:16;;;;;;;;;;;9.20;41.20;;;;;;4994284;28;19910;-57
2022/03/20 00:27:42;;;;;;;;;;;9.10;41.30;;;;;;4993871;28;19972;-56
2022/03/20 00:30:07;;;;;;;;;;;9.10;41.50;;;;;;4993761;28;19909;-55
2022/03/20 00:32:33;;;;;;;;;;;9.10;41.40;;;;;;4993694;28;20318;-56
2022/03/20 00:35:00;;;;;;;;;;;9.10;41.50;;;;;;4993932;28;19909;-56
2022/03/20 00:37:29;;;;;;;;;;;9.10;41.50;;;;;;4993827;28;19922;-56
2022/03/20 00:39:55;;;;;;;;;;;9.00;41.40;;;;;;4994370;28;20337;-56
2022/03/20 00:42:20;;;;;;;;;;;9.10;41.50;;;;;;4993836;28;19953;-56
2022/03/20 00:44:46;;;;;;;;;;;9.00;41.50;;;;;;4993886;28;19910;-57
2022/03/20 00:47:13;;;;;;;;;;;9.00;41.50;;;;;;4993905;28;19918;-56
2022/03/20 00:49:39;;;;;;;;;;;9.00;41.60;;;;;;4994261;28;20270;-57
2022/03/20 00:52:06;;;;;;;;;;;9.00;41.70;;;;;;4993992;28;19910;-56
2022/03/20 00:54:31;;;;;;;;;;;8.90;42.10;;;;;;4994197;28;19909;-56
2022/03/20 00:56:58;;;;;;;;;;;8.80;42.20;;;;;;4993983;28;19910;-55
2022/03/20 00:59:23;;;;;;;;;;;8.60;43.00;;;;;;4993733;28;20342;-56
2022/03/20 01:01:49;;;;;;;;;;;8.60;42.90;;;;;;4993889;28;19910;-56
2022/03/20 01:04:14;;;;;;;;;;;8.60;42.50;;;;;;4993856;28;19917;-57
2022/03/20 01:06:40;;;;;;;;;;;8.70;42.30;;;;;;4993839;28;19918;-55
2022/03/20 01:09:05;;;;;;;;;;;8.80;42.10;;;;;;4994349;28;19916;-66
2022/03/20 01:11:32;;;;;;;;;;;8.80;41.80;;;;;;4997837;28;19957;-59
2022/03/20 01:13:58;;;;;;;;;;;8.90;41.80;;;;;;4997262;28;20274;-62
2022/03/20 01:16:23;;;;;;;;;;;8.70;42.20;;;;;;4996791;28;19910;-55
2022/03/20 01:18:49;;;;;;;;;;;8.80;41.80;;;;;;4994388;28;20377;-61
2022/03/20 01:21:15;;;;;;;;;;;8.80;41.90;;;;;;4994022;28;19917;-66
2022/03/20 01:23:41;;;;;;;;;;;8.90;42.20;;;;;;4993678;28;19910;-73
2022/03/20 01:26:06;;;;;;;;;;;8.80;41.80;;;;;;4993714;28;19924;-55
2022/03/20 01:28:32;;;;;;;;;;;8.90;41.60;;;;;;4993731;28;19914;-73
2022/03/20 01:30:57;;;;;;;;;;;8.80;41.20;;;;;;4993866;28;19949;-59
2022/03/20 01:33:23;;;;;;;;;;;8.80;41.90;;;;;;4993841;28;19914;-55
2022/03/20 01:35:48;;;;;;;;;;;8.60;42.10;;;;;;4993966;28;20388;-56
2022/03/20 01:38:19;;;;;;;;;;;8.60;41.90;;;;;;4993722;28;20440;-56
2022/03/20 01:40:46;;;;;;;;;;;8.70;41.60;;;;;;4993575;28;20290;-55
2022/03/20 01:43:12;;;;;;;;;;;8.70;41.70;;;;;;4993295;28;19910;-62
2022/03/20 01:45:37;;;;;;;;;;;8.60;41.70;;;;;;4993759;28;19965;-57
2022/03/20 01:48:03;;;;;;;;;;;8.70;41.80;;;;;;4996543;28;20021;-67
2022/03/20 01:50:32;;;;;;;;;;;8.70;41.40;;;;;;4996838;28;20013;-66
2022/03/20 01:52:58;;;;;;;;;;;8.60;41.90;;;;;;4997162;28;19909;-56
2022/03/20 01:55:24;;;;;;;;;;;8.60;41.80;;;;;;4996902;28;19920;-56
2022/03/20 01:57:50;;;;;;;;;;;8.80;41.30;;;;;;4996793;28;20429;-56
2022/03/20 02:00:16;;;;;;;;;;;8.80;41.30;;;;;;4996784;28;19949;-57
2022/03/20 02:02:42;;;;;;;;;;;8.90;40.80;;;;;;4996883;28;19917;-64
2022/03/20 02:05:09;;;;;;;;;;;9.00;40.70;;;;;;4996739;28;19910;-66
2022/03/20 02:07:35;;;;;;;;;;;9.00;40.70;;;;;;4996495;28;19917;-60
2022/03/20 02:10:01;;;;;;;;;;;9.00;41.10;;;;;;4996752;28;20284;-57
2022/03/20 02:12:28;;;;;;;;;;;9.10;40.30;;;;;;4996581;28;20362;-56
2022/03/20 02:14:55;;;;;;;;;;;9.10;40.20;;;;;;4996823;28;19921;-56
2022/03/20 02:17:20;;;;;;;;;;;9.10;39.80;;;;;;4996553;28;19917;-57
2022/03/20 02:19:46;;;;;;;;;;;9.20;39.80;;;;;;4996386;28;19910;-58
2022/03/20 02:22:11;;;;;;;;;;;9.10;39.70;;;;;;4996129;28;19910;-59
2022/03/20 02:24:41;;;;;;;;;;;9.20;39.80;;;;;;4996242;28;19956;-57
2022/03/20 02:27:12;;;;;;;;;;;9.10;39.80;;;;;;4994639;28;19925;-57
2022/03/20 02:29:39;;;;;;;;;;;9.10;39.40;;;;;;4996109;28;19910;-57
2022/03/20 02:32:06;;;;;;;;;;;9.20;39.20;;;;;;4994605;28;19945;-55
2022/03/20 02:34:32;;;;;;;;;;;9.20;39.30;;;;;;4995982;28;19917;-55
2022/03/20 02:36:58;;;;;;;;;;;9.20;39.20;;;;;;4995676;28;20069;-55
2022/03/20 02:39:24;;;;;;;;;;;9.20;39.40;;;;;;4995784;28;20381;-56
2022/03/20 02:41:54;;;;;;;;;;;9.30;39.20;;;;;;4995805;28;19924;-56
2022/03/20 02:44:20;;;;;;;;;;;9.20;39.00;;;;;;4995943;28;19933;-56
2022/03/20 02:46:46;;;;;;;;;;;9.30;39.10;;;;;;4995817;28;20374;-56
2022/03/20 02:49:13;;;;;;;;;;;9.10;39.30;;;;;;4995592;28;19920;-55
2022/03/20 02:51:38;;;;;;;;;;;9.10;39.30;;;;;;4995575;28;20311;-57
2022/03/20 02:54:04;;;;;;;;;;;9.10;39.40;;;;;;4995333;28;19952;-56
2022/03/20 02:56:32;;;;;;;;;;;9.10;39.40;;;;;;4995910;28;20348;-55
2022/03/20 02:58:58;;;;;;;;;;;8.90;39.50;;;;;;4995653;28;20255;-55
2022/03/20 03:01:24;;;;;;;;;;;9.00;39.70;;;;;;4995324;28;19985;-56
2022/03/20 03:03:50;;;;;;;;;;;9.00;39.70;;;;;;4995386;28;19969;-57
2022/03/20 03:06:15;;;;;;;;;;;8.90;39.80;;;;;;4995466;28;20376;-56
2022/03/20 03:11:25;;;;;;;;;;;8.80;40.00;;;;;;4995270;28;20353;-55
2022/03/20 03:13:50;;;;;;;;;;;8.90;39.90;;;;;;4994942;28;19910;-56
2022/03/20 03:16:16;;;;;;;;;;;8.70;40.20;;;;;;4995137;28;19910;-56
2022/03/20 03:18:46;;;;;;;;;;;8.90;40.20;;;;;;4994979;28;19921;-55
2022/03/20 03:21:12;;;;;;;;;;;8.90;40.00;;;;;;4993461;28;19914;-58
2022/03/20 03:23:38;;;;;;;;;;;8.80;40.10;;;;;;4994732;28;19920;-56
2022/03/20 03:26:04;;;;;;;;;;;8.60;40.60;;;;;;4994818;28;19962;-55
2022/03/20 03:28:36;;;;;;;;;;;8.50;40.80;;;;;;4994862;28;19920;-56
2022/03/20 03:31:03;;;;;;;;;;;8.50;40.80;;;;;;4994790;28;19909;-56
2022/03/20 03:33:28;;;;;;;;;;;8.50;40.80;;;;;;4994560;28;19916;-55
2022/03/20 03:35:54;;;;;;;;;;;8.40;40.90;;;;;;4994791;28;20004;-56
2022/03/20 03:38:22;;;;;;;;;;;8.40;40.90;;;;;;4994630;28;20366;-56
2022/03/20 03:40:48;;;;;;;;;;;8.50;40.80;;;;;;4994653;28;19961;-56
2022/03/20 03:43:17;;;;;;;;;;;8.40;40.90;;;;;;4994682;28;20009;-56
2022/03/20 03:45:43;;;;;;;;;;;8.30;41.00;;;;;;4994889;28;19909;-56
2022/03/20 03:48:09;;;;;;;;;;;8.30;40.70;;;;;;4994615;28;19918;-56
2022/03/20 03:50:36;;;;;;;;;;;8.30;40.80;;;;;;4994918;28;19977;-56
2022/03/20 03:53:03;;;;;;;;;;;8.20;41.00;;;;;;4994824;28;19980;-57
2022/03/20 03:55:29;;;;;;;;;;;8.20;41.10;;;;;;4995107;28;19909;-56
2022/03/20 03:57:55;;;;;;;;;;;8.40;40.90;;;;;;4994927;28;19958;-56
2022/03/20 04:00:21;;;;;;;;;;;8.40;40.40;;;;;;4994809;28;19910;-56
2022/03/20 04:02:48;;;;;;;;;;;8.50;40.30;;;;;;4994608;28;20412;-60
2022/03/20 04:05:15;;;;;;;;;;;8.30;40.60;;;;;;4996348;28;19971;-57
2022/03/20 04:07:41;;;;;;;;;;;8.40;40.30;;;;;;4995880;28;20364;-56
2022/03/20 04:10:06;;;;;;;;;;;8.30;40.50;;;;;;4994738;28;20049;-56
2022/03/20 04:12:36;;;;;;;;;;;8.20;41.10;;;;;;4994815;28;20285;-57
2022/03/20 04:15:02;;;;;;;;;;;8.20;41.00;;;;;;4994642;28;19917;-62
2022/03/20 04:17:29;;;;;;;;;;;8.20;40.60;;;;;;4994513;28;20380;-57
2022/03/20 04:19:56;;;;;;;;;;;8.30;41.00;;;;;;4994673;28;19916;-56
2022/03/20 04:22:21;;;;;;;;;;;8.30;40.30;;;;;;4994421;28;20381;-63
2022/03/20 04:24:47;;;;;;;;;;;8.40;40.90;;;;;;4994221;28;19910;-56
2022/03/20 04:27:13;;;;;;;;;;;8.50;40.10;;;;;;4994386;28;20016;-59
2022/03/20 04:29:39;;;;;;;;;;;8.50;40.10;;;;;;4994493;28;20358;-58
2022/03/20 04:32:05;;;;;;;;;;;8.50;40.10;;;;;;4994115;28;19965;-55
2022/03/20 04:34:31;;;;;;;;;;;8.50;39.80;;;;;;4994135;28;19917;-58
2022/03/20 04:36:56;;;;;;;;;;;8.50;39.70;;;;;;4994243;28;20016;-62
2022/03/20 04:39:23;;;;;;;;;;;8.50;39.90;;;;;;4994228;28;19910;-57
2022/03/20 04:41:49;;;;;;;;;;;8.50;40.00;;;;;;4994089;28;19969;-56
2022/03/20 04:44:15;;;;;;;;;;;8.50;39.90;;;;;;4994045;28;19956;-56
2022/03/20 04:46:40;;;;;;;;;;;8.50;40.10;;;;;;4994238;28;19921;-56
2022/03/20 05:00:06;;;;;;;;;;;8.30;40.90;;;;;;4994111;28;19945;-56
2022/03/20 05:02:31;;;;;;;;;;;8.30;40.80;;;;;;4993858;28;19989;-56
2022/03/20 05:04:57;;;;;;;;;;;8.20;40.70;;;;;;4994122;28;20373;-55
2022/03/20 05:07:23;;;;;;;;;;;8.30;40.60;;;;;;4993826;28;19968;-56
2022/03/20 05:15:16;;;;;;;;;;;8.40;40.20;;;;;;4993912;28;20381;-56
2022/03/20 05:17:42;;;;;;;;;;;8.30;39.90;;;;;;4993891;28;19941;-57
2022/03/20 05:20:08;;;;;;;;;;;8.10;40.80;;;;;;4993630;28;20346;-61
2022/03/20 05:22:37;;;;;;;;;;;8.10;40.40;;;;;;4996174;28;20383;-56
2022/03/20 05:25:05;;;;;;;;;;;8.00;40.40;;;;;;4997508;28;19910;-59
2022/03/20 05:27:30;;;;;;;;;;;8.00;40.10;;;;;;4997150;28;19922;-56
2022/03/20 05:29:56;;;;;;;;;;;7.90;40.20;;;;;;4997392;28;20297;-57
2022/03/20 05:32:23;;;;;;;;;;;8.00;40.50;;;;;;4997394;28;19910;-57
2022/03/20 05:34:48;;;;;;;;;;;7.90;40.30;;;;;;4997949;28;20358;-57
2022/03/20 05:37:14;;;;;;;;;;;8.00;39.80;;;;;;4997183;28;19933;-56
2022/03/20 05:39:40;;;;;;;;;;;8.00;40.10;;;;;;4997470;28;20329;-57
2022/03/20 05:42:06;;;;;;;;;;;8.10;40.10;;;;;;4997599;28;20270;-56
2022/03/20 05:44:33;;;;;;;;;;;8.00;39.80;;;;;;4997524;28;19909;-57
2022/03/20 05:46:59;;;;;;;;;;;8.10;39.80;;;;;;4997013;28;19968;-56
2022/03/20 05:49:25;;;;;;;;;;;8.10;39.40;;;;;;4997193;28;20309;-59
2022/03/20 05:51:52;;;;;;;;;;;8.10;39.40;;;;;;4997204;28;19909;-55
2022/03/20 05:54:17;;;;;;;;;;;8.10;39.60;;;;;;4997137;28;19976;-57
2022/03/20 05:59:28;;;;;;;;;;;8.10;39.60;;;;;;4997519;28;19916;-58
2022/03/20 06:01:53;;;;;;;;;;;8.10;39.60;;;;;;4996961;28;20425;-56
2022/03/20 06:04:19;;;;;;;;;;;8.30;38.80;;;;;;4996768;28;20409;-59
2022/03/20 06:06:45;;;;;;;;;;;8.30;39.20;;;;;;4997091;28;20024;-58
2022/03/20 06:09:11;;;;;;;;;;;8.30;39.00;;;;;;4996928;28;19916;-56
2022/03/20 06:11:36;;;;;;;;;;;8.40;38.80;;;;;;4996878;28;19917;-55
2022/03/20 06:14:03;;;;;;;;;;;8.40;38.40;;;;;;4996584;28;19910;-58
2022/03/20 06:16:28;;;;;;;;;;;8.50;38.30;;;;;;5000231;28;19917;-59
2022/03/20 06:18:56;;;;;;;;;;;8.50;38.30;;;;;;4999725;28;19910;-72
2022/03/20 06:21:22;;;;;;;;;;;8.40;38.30;;;;;;4998768;28;20389;-56
2022/03/20 06:23:48;;;;;;;;;;;8.40;38.20;;;;;;4996834;28;19964;-58
2022/03/20 06:26:16;;;;;;;;;;;8.50;37.90;;;;;;4996700;28;19921;-63
2022/03/20 06:28:43;;;;;;;;;;;8.60;38.00;;;;;;4996911;28;20380;-58
2022/03/20 06:31:10;;;;;;;;;;;8.50;37.80;;;;;;4996579;28;19932;-72
2022/03/20 06:33:37;;;;;;;;;;;8.50;38.50;;;;;;4996242;28;19945;-70
2022/03/20 06:36:03;;;;;;;;;;;8.50;37.70;;;;;;4996659;28;19910;-64
2022/03/20 06:38:30;;;;;;;;;;;8.60;37.50;;;;;;4996315;28;19972;-72
2022/03/20 06:40:56;;;;;;;;;;;8.60;37.80;;;;;;4996267;28;19964;-60
2022/03/20 06:43:21;;;;;;;;;;;8.70;37.40;;;;;;4996173;28;19957;-63
2022/03/20 06:45:47;;;;;;;;;;;9.00;37.20;;;;;;4996376;28;20325;-62
2022/03/20 06:48:12;;;;;;;;;;;9.30;36.50;;;;;;4996409;28;19982;-56
2022/03/20 06:50:38;;;;;;;;;;;9.50;35.80;;;;;;4994800;28;19959;-59
2022/03/20 06:53:04;;;;;;;;;;;9.80;35.10;;;;;;4996024;28;20273;-55
2022/03/20 06:55:30;;;;;;;;;;;10.10;34.00;;;;;;4996559;28;20278;-59
2022/03/20 06:57:57;;;;;;;;;;;10.10;33.40;;;;;;4995887;28;20329;-63
2022/03/20 07:00:23;;;;;;;;;;;10.20;33.20;;;;;;4995822;28;19955;-57
2022/03/20 07:02:49;;;;;;;;;;;10.30;33.40;;;;;;4995839;28;19976;-56
2022/03/20 07:05:14;;;;;;;;;;;10.40;33.10;;;;;;4998898;28;19964;-60
2022/03/20 07:07:40;;;;;;;;;;;10.50;32.30;;;;;;4999480;28;19933;-64
2022/03/20 07:10:07;;;;;;;;;;;10.50;31.70;;;;;;4995968;28;19917;-68
2022/03/20 07:12:33;;;;;;;;;;;10.50;32.10;;;;;;4995456;28;19957;-66
2022/03/20 07:14:59;;;;;;;;;;;10.70;32.20;;;;;;4995655;28;20398;-56
2022/03/20 07:17:25;;;;;;;;;;;11.00;31.80;;;;;;4995451;28;19956;-58
2022/03/20 07:19:51;;;;;;;;;;;11.00;31.40;;;;;;4995502;28;20259;-61
2022/03/20 07:22:18;;;;;;;;;;;11.10;31.00;;;;;;4995181;28;19909;-58
2022/03/20 07:24:44;;;;;;;;;;;11.30;40.50;;;;;;4995160;28;20373;-63
2022/03/20 07:29:54;;;;;;;;;;;12.00;31.90;;;;;;4995659;28;19916;-61
2022/03/20 07:32:20;;;;;;;;;;;12.20;37.00;;;;;;4995378;28;20262;-64
2022/03/20 07:34:45;;;;;;;;;;;12.00;31.10;;;;;;4995291;28;19910;-58
2022/03/20 07:37:18;;;;;;;;;;;12.30;32.00;;;;;;4995086;28;20431;-60
2022/03/20 07:39:44;;;;;;;;;;;12.10;30.30;;;;;;4993695;28;20388;-57
2022/03/20 07:42:10;;;;;;;;;;;12.30;30.60;;;;;;4995150;28;19910;-58
2022/03/20 07:44:36;;;;;;;;;;;12.30;33.00;;;;;;4994506;28;19910;-59
2022/03/20 07:47:03;;;;;;;;;;;12.00;30.10;;;;;;4995124;28;19914;-59
2022/03/20 07:49:29;;;;;;;;;;;12.40;31.40;;;;;;4995056;28;19910;-59
2022/03/20 07:51:57;;;;;;;;;;;11.90;29.60;;;;;;4992344;28;19922;-59
2022/03/20 07:54:24;;;;;;;;;;;11.80;30.00;;;;;;4992284;28;20024;-60
2022/03/20 07:56:49;;;;;;;;;;;11.70;29.90;;;;;;4994883;28;19996;-58
2022/03/20 07:59:16;;;;;;;;;;;11.70;29.80;;;;;;4994138;28;19951;-64
2022/03/20 08:01:42;;;;;;;;;;;11.90;30.10;;;;;;4994669;28;19910;-58
2022/03/20 08:04:08;;;;;;;;;;;11.70;29.60;;;;;;4995178;28;19910;-57
2022/03/20 08:06:33;;;;;;;;;;;11.60;29.70;;;;;;4994724;28;20016;-60
2022/03/20 08:08:59;;;;;;;;;;;11.60;29.90;;;;;;4994935;28;19910;-67
2022/03/20 08:11:28;;;;;;;;;;;11.60;29.80;;;;;;4985154;28;19921;-62
2022/03/20 08:13:54;;;;;;;;;;;11.70;30.00;;;;;;4984087;28;19965;-65
2022/03/20 08:16:22;;;;;;;;;;;11.90;29.30;;;;;;4974992;28;19911;-61
2022/03/20 08:18:50;;;;;;;;;;;11.90;29.10;;;;;;4975048;28;20323;-56
2022/03/20 08:21:16;;;;;;;;;;;11.70;28.20;;;;;;4975115;28;19910;-58
2022/03/20 08:23:42;;;;;;;;;;;11.70;28.20;;;;;;4974973;28;19911;-59
2022/03/20 08:26:08;;;;;;;;;;;11.90;28.50;;;;;;4979613;28;19914;-61
2022/03/20 08:28:37;;;;;;;;;;;11.90;27.70;;;;;;4993840;28;19922;-66
2022/03/20 08:31:03;;;;;;;;;;;11.90;27.70;;;;;;4993774;28;19992;-70
2022/03/20 08:33:30;;;;;;;;;;;12.00;27.80;;;;;;4993749;28;20331;-59
2022/03/20 08:35:56;;;;;;;;;;;12.10;27.10;;;;;;4993803;28;19914;-69
2022/03/20 08:38:21;;;;;;;;;;;12.30;26.80;;;;;;4993384;28;19986;-60
2022/03/20 08:40:47;;;;;;;;;;;12.50;26.80;;;;;;4993687;28;20282;-60
2022/03/20 08:43:15;;;;;;;;;;;12.40;27.20;;;;;;4993537;28;19920;-60
2022/03/20 08:45:41;;;;;;;;;;;12.50;26.70;;;;;;4988588;28;19910;-56
2022/03/20 08:48:07;;;;;;;;;;;12.50;26.90;;;;;;4993601;28;19982;-58
2022/03/20 08:50:32;;;;;;;;;;;12.50;27.10;;;;;;4993543;28;19997;-57
2022/03/20 08:52:58;;;;;;;;;;;12.50;25.60;;;;;;4993644;28;19910;-56
2022/03/20 08:55:24;;;;;;;;;;;12.40;26.40;;;;;;4994475;28;19984;-55
2022/03/20 08:57:52;;;;;;;;;;;12.50;26.00;;;;;;4998002;28;19910;-59
2022/03/20 09:00:19;;;;;;;;;;;12.60;25.60;;;;;;4997431;28;19914;-60
2022/03/20 09:02:45;;;;;;;;;;;12.60;25.30;;;;;;4997461;28;19909;-60
2022/03/20 09:05:12;;;;;;;;;;;12.80;25.00;;;;;;4997440;28;20259;-60
2022/03/20 09:07:41;;;;;;;;;;;12.80;25.10;;;;;;4997433;28;19925;-60
2022/03/20 09:10:07;;;;;;;;;;;12.90;24.90;;;;;;4995025;28;19917;-62
2022/03/20 09:12:34;;;;;;;;;;;12.70;23.70;;;;;;4997299;28;19909;-58
2022/03/20 09:15:01;;;;;;;;;;;12.80;23.80;;;;;;4997360;28;20005;-56
2022/03/20 09:20:11;;;;;;;;;;;12.80;24.10;;;;;;4995300;28;19917;-56
2022/03/20 09:22:37;;;;;;;;;;;12.80;23.50;;;;;;4997529;28;19910;-58
2022/03/20 09:25:04;;;;;;;;;;;12.90;23.70;;;;;;4997486;28;19953;-56
2022/03/20 09:27:29;;;;;;;;;;;12.70;23.20;;;;;;4997558;28;19918;-56
2022/03/20 09:29:55;;;;;;;;;;;12.90;23.80;;;;;;4997842;28;19972;-56
2022/03/20 09:32:20;;;;;;;;;;;13.00;23.00;;;;;;4997224;28;20341;-56
2022/03/20 09:34:46;;;;;;;;;;;13.00;23.50;;;;;;4997038;28;19916;-58
2022/03/20 09:37:12;;;;;;;;;;;12.90;22.60;;;;;;4996757;28;20370;-57
2022/03/20 09:39:37;;;;;;;;;;;12.80;22.70;;;;;;4997153;28;19910;-58
2022/03/20 09:42:03;;;;;;;;;;;12.70;23.10;;;;;;4996763;28;20017;-55
2022/03/20 09:44:31;;;;;;;;;;;12.60;22.90;;;;;;4996929;28;20392;-59
2022/03/20 09:46:57;;;;;;;;;;;12.50;23.30;;;;;;4997069;28;19913;-57
2022/03/20 09:49:25;;;;;;;;;;;12.70;23.20;;;;;;4996805;28;20370;-59
2022/03/20 09:51:51;;;;;;;;;;;12.90;25.50;;;;;;4996987;28;19910;-57
2022/03/20 09:54:17;;;;;;;;;;;12.90;23.20;;;;;;4997025;28;19916;-55
2022/03/20 09:56:43;;;;;;;;;;;12.90;23.20;;;;;;4997051;28;19989;-55
2022/03/20 09:59:09;;;;;;;;;;;12.90;23.30;;;;;;4996951;28;20343;-54
2022/03/20 10:01:35;;;;;;;;;;;13.10;23.30;;;;;;4996947;28;19909;-59
2022/03/20 10:04:19;;;;;;;;;;;13.10;23.10;;;;;;5000116;28;19909;-57
2022/03/20 10:06:45;;;;;;;;;;;13.00;23.20;;;;;;4997308;28;19920;-56
2022/03/20 10:09:13;;;;;;;;;;;12.90;23.70;;;;;;4996455;28;20290;-55
2022/03/20 10:11:50;;;;;;;;;;;13.00;22.60;;;;;;4996492;28;20009;-56
2022/03/20 10:14:22;;;;;;;;;;;12.80;22.70;;;;;;4996459;28;19913;-57
2022/03/20 10:16:55;;;;;;;;;;;12.80;22.90;;;;;;4996193;28;20313;-56
2022/03/20 10:19:23;;;;;;;;;;;12.60;23.00;;;;;;4996419;28;20009;-56
2022/03/20 10:22:12;;;;;;;;;;;12.80;23.10;;;;;;4996382;28;19916;-57
2022/03/20 10:24:39;;;;;;;;;;;13.00;22.90;;;;;;5000864;28;19953;-56
2022/03/20 10:27:04;;;;;;;;;;;13.20;23.50;;;;;;4996355;28;20016;-59
2022/03/20 10:29:32;;;;;;;;;;;13.30;22.80;;;;;;4996253;28;19953;-57
2022/03/20 10:32:15;;;;;;;;;;;13.20;22.60;;;;;;4996320;28;20409;-58
2022/03/20 10:34:49;;;;;;;;;;;13.20;22.60;;;;;;4996211;28;19917;-56
2022/03/20 10:37:15;;;;;;;;;;;13.20;22.80;;;;;;4996193;28;19972;-59
2022/03/20 10:39:42;;;;;;;;;;;13.30;22.70;;;;;;4996367;28;19941;-57
2022/03/20 10:42:12;;;;;;;;;;;13.40;23.00;;;;;;4996418;28;19996;-57
2022/03/20 10:44:38;;;;;;;;;;;13.50;22.90;;;;;;4996499;28;19910;-56
2022/03/20 10:47:09;;;;;;;;;;;13.40;22.50;;;;;;4996240;28;20284;-57
2022/03/20 10:49:35;;;;;;;;;;;13.20;22.20;;;;;;4996324;28;19916;-57
2022/03/20 10:52:20;;;;;;;;;;;13.30;23.30;;;;;;4995932;28;19917;-55
2022/03/20 10:54:46;;;;;;;;;;;13.50;22.50;;;;;;4996172;28;19992;-58
2022/03/20 10:57:13;;;;;;;;;;;13.60;22.70;;;;;;4995901;28;20393;-56
2022/03/20 10:59:40;;;;;;;;;;;13.50;22.40;;;;;;4995768;28;19910;-57
2022/03/20 11:02:05;;;;;;;;;;;13.70;22.60;;;;;;4995702;28;19910;-59
2022/03/20 11:04:32;;;;;;;;;;;13.70;22.40;;;;;;4995930;28;20265;-57
2022/03/20 11:06:59;;;;;;;;;;;13.80;21.80;;;;;;4995980;28;19937;-57
2022/03/20 11:09:25;;;;;;;;;;;13.50;21.60;;;;;;4995950;28;19969;-55
2022/03/20 11:11:52;;;;;;;;;;;13.60;22.40;;;;;;4995892;28;19909;-56
2022/03/20 11:14:22;;;;;;;;;;;13.80;22.90;;;;;;4995800;28;19917;-58
2022/03/20 11:16:49;;;;;;;;;;;14.00;21.90;;;;;;4996075;28;19910;-55
2022/03/20 11:19:15;;;;;;;;;;;14.20;21.80;;;;;;4994585;28;19914;-56
2022/03/20 11:21:43;;;;;;;;;;;14.20;20.90;;;;;;4998578;28;21294;-61
2022/03/20 11:24:09;;;;;;;;;;;14.00;21.40;;;;;;4996724;28;19910;-66
2022/03/20 11:26:38;;;;;;;;;;;13.90;21.20;;;;;;4996031;28;20277;-64
2022/03/20 11:29:04;;;;;;;;;;;13.90;21.60;;;;;;4996422;28;19918;-66
2022/03/20 11:31:36;;;;;;;;;;;14.10;21.90;;;;;;4995865;28;19910;-68
2022/03/20 11:34:08;;;;;;;;;;;14.30;22.00;;;;;;4997675;28;19945;-59
2022/03/20 11:36:52;;;;;;;;;;;14.00;20.50;;;;;;4995345;28;19993;-67
2022/03/20 11:39:18;;;;;;;;;;;14.10;21.40;;;;;;4995036;28;19926;-66
2022/03/20 11:41:43;;;;;;;;;;;14.40;20.70;;;;;;4995337;28;19917;-57
2022/03/20 11:44:20;;;;;;;;;;;14.30;20.50;;;;;;4989421;28;19922;-57
2022/03/20 11:46:46;;;;;;;;;;;14.20;20.10;;;;;;4975928;28;19937;-59
2022/03/20 11:49:18;;;;;;;;;;;14.30;20.40;;;;;;4975778;28;19914;-59
2022/03/20 11:51:59;;;;;;;;;;;14.40;20.60;;;;;;4975638;28;19910;-59
2022/03/20 11:54:48;;;;;;;;;;;14.30;20.10;;;;;;4975450;28;20381;-58
2022/03/20 11:57:23;;;;;;;;;;;14.50;20.20;;;;;;4974846;28;19968;-56
2022/03/20 11:59:49;;;;;;;;;;;14.30;19.10;;;;;;4975419;28;19992;-58
2022/03/20 12:02:16;;;;;;;;;;;14.10;20.40;;;;;;4974957;28;20294;-58
2022/03/20 12:05:00;;;;;;;;;;;14.30;20.20;;;;;;4974957;28;19914;-62
2022/03/20 12:07:33;;;;;;;;;;;14.50;20.10;;;;;;4974944;28;20029;-59
2022/03/20 12:10:01;;;;;;;;;;;14.40;19.20;;;;;;4975134;28;19910;-55
2022/03/20 12:12:45;;;;;;;;;;;14.30;19.30;;;;;;4975002;28;19973;-57
2022/03/20 12:15:11;;;;;;;;;;;14.30;19.20;;;;;;4974990;28;19910;-58
2022/03/20 12:17:56;;;;;;;;;;;14.10;19.50;;;;;;4974911;28;19921;-56
2022/03/20 12:20:40;;;;;;;;;;;14.20;20.30;;;;;;4975528;28;19917;-55
2022/03/20 12:23:24;;;;;;;;;;;14.20;19.20;;;;;;4975695;28;19933;-53
2022/03/20 12:25:50;;;;;;;;;;;14.40;19.80;;;;;;4975209;28;19910;-59
2022/03/20 12:28:27;;;;;;;;;;;14.50;19.40;;;;;;4975271;28;19920;-57
2022/03/20 12:30:52;;;;;;;;;;;14.40;19.10;;;;;;4974817;28;19910;-56
2022/03/20 12:33:22;;;;;;;;;;;14.30;19.10;;;;;;4975065;28;20393;-63
2022/03/20 12:35:48;;;;;;;;;;;14.40;19.00;;;;;;4974879;28;19957;-63
2022/03/20 12:38:32;;;;;;;;;;;14.50;18.50;;;;;;4974766;28;19926;-64
2022/03/20 12:41:05;;;;;;;;;;;14.70;18.80;;;;;;4974654;28;19910;-64
2022/03/20 12:43:30;;;;;;;;;;;14.70;18.20;;;;;;4974909;28;19933;-60
2022/03/20 12:45:57;;;;;;;;;;;14.20;18.40;;;;;;4974709;28;19911;-63
2022/03/20 12:48:23;;;;;;;;;;;14.20;18.30;;;;;;4974681;28;20409;-61
2022/03/20 12:50:49;;;;;;;;;;;14.10;18.30;;;;;;4974939;28;20005;-59
2022/03/20 12:53:16;;;;;;;;;;;14.10;19.10;;;;;;4974975;28;19910;-59
2022/03/20 12:55:49;;;;;;;;;;;14.30;19.50;;;;;;4975055;28;19964;-63
2022/03/20 12:58:15;;;;;;;;;;;14.30;19.00;;;;;;4974811;28;19914;-61
2022/03/20 13:00:43;;;;;;;;;;;14.40;19.50;;;;;;4974624;28;19910;-60
2022/03/20 13:03:12;;;;;;;;;;;14.50;19.70;;;;;;4976458;28;19914;-62
2022/03/20 13:05:55;;;;;;;;;;;14.60;19.20;;;;;;4974817;28;20016;-61
2022/03/20 13:08:23;;;;;;;;;;;14.70;19.30;;;;;;4974382;28;19924;-61
2022/03/20 13:10:53;;;;;;;;;;;14.50;19.60;;;;;;4974641;28;19918;-62
2022/03/20 13:13:23;;;;;;;;;;;14.60;19.50;;;;;;4974556;28;20314;-59
2022/03/20 13:15:49;;;;;;;;;;;14.50;19.20;;;;;;4974549;28;20355;-60
2022/03/20 13:18:15;;;;;;;;;;;14.50;19.70;;;;;;4974679;28;19936;-60
2022/03/20 13:20:41;;;;;;;;;;;14.50;20.00;;;;;;4974501;28;20417;-61
2022/03/20 13:23:07;;;;;;;;;;;14.40;20.30;;;;;;4974402;28;19910;-61
2022/03/20 13:25:37;;;;;;;;;;;14.30;20.00;;;;;;4974514;28;20001;-62
2022/03/20 13:28:03;;;;;;;;;;;14.00;19.80;;;;;;4974167;28;19918;-59
2022/03/20 13:30:33;;;;;;;;;;;14.30;20.90;;;;;;4974511;28;19917;-58
2022/03/20 13:32:58;;;;;;;;;;;14.50;21.00;;;;;;4974287;28;19933;-62
2022/03/20 13:35:24;;;;;;;;;;;14.30;19.60;;;;;;4974470;28;20359;-61
2022/03/20 13:37:54;;;;;;;;;;;14.10;20.70;;;;;;4974270;28;20321;-58
2022/03/20 13:40:24;;;;;;;;;;;13.90;20.60;;;;;;4974220;28;19910;-56
2022/03/20 13:42:50;;;;;;;;;;;13.80;20.70;;;;;;4975723;28;20294;-56
2022/03/20 13:45:16;;;;;;;;;;;14.20;21.40;;;;;;4977747;28;20432;-61
2022/03/20 13:47:42;;;;;;;;;;;14.20;20.20;;;;;;4977771;28;19918;-56
2022/03/20 13:50:07;;;;;;;;;;;14.00;20.00;;;;;;4989892;28;19996;-60
2022/03/20 13:52:35;;;;;;;;;;;14.00;20.80;;;;;;4996810;28;19910;-58
2022/03/20 13:55:05;;;;;;;;;;;14.00;20.20;;;;;;4991022;28;19944;-59
2022/03/20 13:57:32;;;;;;;;;;;13.80;20.30;;;;;;4996362;28;19917;-56
2022/03/20 14:00:03;;;;;;;;;;;13.90;20.70;;;;;;4996302;28;19916;-62
2022/03/20 14:02:39;;;;;;;;;;;13.90;20.90;;;;;;4996428;28;19972;-55
2022/03/20 14:05:10;;;;;;;;;;;13.90;19.90;;;;;;4996148;28;20064;-55
2022/03/20 14:07:35;;;;;;;;;;;14.00;20.10;;;;;;4994784;28;20009;-54
2022/03/20 14:10:14;;;;;;;;;;;13.90;20.90;;;;;;4996369;28;19949;-54
2022/03/20 14:12:40;;;;;;;;;;;14.10;20.70;;;;;;4994847;28;19917;-57
2022/03/20 14:15:06;;;;;;;;;;;14.30;20.60;;;;;;4996141;28;19910;-58
2022/03/20 14:17:40;;;;;;;;;;;14.30;19.50;;;;;;4996347;28;19917;-55
2022/03/20 14:20:13;;;;;;;;;;;14.20;20.70;;;;;;4996395;28;19909;-55
2022/03/20 14:23:03;;;;;;;;;;;14.10;20.20;;;;;;4996255;28;19914;-54
2022/03/20 14:25:29;;;;;;;;;;;14.00;19.50;;;;;;5006222;28;19981;-55
2022/03/20 14:27:58;;;;;;;;;;;13.90;20.20;;;;;;4995877;28;21353;-55
2022/03/20 14:41:26;;;;;;;;;;;14.00;19.90;;;;;;4990135;28;19992;-56
2022/03/20 14:44:13;;;;;;;;;;;13.50;20.20;;;;;;4996034;28;19917;-55
2022/03/20 14:46:40;;;;;;;;;;;13.60;21.00;;;;;;4996090;28;20319;-54
2022/03/20 14:49:08;;;;;;;;;;;13.60;20.40;;;;;;4996173;28;20049;-57
2022/03/20 14:51:34;;;;;;;;;;;13.60;20.60;;;;;;4996078;28;20373;-55
2022/03/20 14:54:00;;;;;;;;;;;13.80;20.90;;;;;;4995642;28;19913;-54
2022/03/20 14:56:26;;;;;;;;;;;13.60;21.10;;;;;;4995913;28;19911;-54
2022/03/20 14:58:53;;;;;;;;;;;13.50;20.70;;;;;;4995970;28;20373;-55
2022/03/20 15:01:19;;;;;;;;;;;13.30;21.00;;;;;;4995635;28;19965;-61
2022/03/20 15:03:45;;;;;;;;;;;13.50;20.70;;;;;;4995465;28;19910;-60